Terminal Aerodrome Forecast
Issued by NWS

Home | Current Version | Previous Version | Text Only | Print | Product List | Glossary On
Versions: 1 2 3 4 5 6 7 8 9 10 11 12 13 14 15 16 17 18 19 20 21 22 23
000
FTUS41 KPHI 200559
TAFPNE
TAF
KPNE 200559Z 2006/2106 VRB03KT P6SM FEW025 BKN250
     FM201700 14005KT 5SM -RA SCT030 OVC070
     FM202000 14006KT 4SM -RA BR BKN015 OVC030
     FM202200 15004KT 2SM BR BKN007 OVC015
     FM210200 18003KT 3SM BR OVC003=

USA.gov is the U.S. government's official web portal to all federal, state and local government web resources and services.